Weather at Harstad/Narvik Airport, Evenes

Public forecast

Using degrees Celsius for public forecast. Weather courtesy of forecast.io.

Current aviation weather report (METAR) for Harstad/Narvik Airport, Evenes

Report is more than 6 hours old.

Retrieved 2021/01/25 01:20 UTC (24 hours ago):

ENEV 250120Z AUTO 16006KT 9999 BKN012/// OVC017/// M10/M15 Q0998 RMK WIND 1400FT 15010KT

Closest aviation forecast (TAF) to Harstad/Narvik Airport, Evenes

Closest forecast is And√łya Airport, 49.5 nm (91.6 km) NNW. Retrieved 2021-01-26 00:56 UTC (21 minutes ago):

TAF ENAN 252300Z 2600/2624 20009KT 9999 FEW050 BECMG 2606/2608 14012KT